Time;durP1;ratioP1;P1;durP2;ratioP2;P2;SDS_P1;SDS_P2;PMS_P1;PMS_P2;Temp;Humidity;BMP_temperature;BMP_pressure;BME280_temperature;BME280_humidity;BME280_pressure;Samples;Min_cycle;Max_cycle;Signal;HPM_P1;HPM_P2
2022/06/09 00:01:50;;;;;;;1.48;0.85;;;15.30;99.90;;;15.60;68.61;97080.59;5042213;28;20055;-49
2022/06/09 00:04:26;;;;;;;0.80;0.80;;;15.30;99.90;;;15.62;68.41;97081.22;5042080;28;20057;-49
2022/06/09 00:07:02;;;;;;;1.20;0.90;;;15.30;99.90;;;15.59;68.73;97077.09;5041728;28;20052;-48
2022/06/09 00:09:47;;;;;;;1.10;0.93;;;15.30;99.90;;;15.63;68.62;97089.06;5041598;28;20397;-47
2022/06/09 00:12:15;;;;;;;0.75;0.73;;;15.30;99.90;;;15.64;68.36;97096.06;5042926;28;20072;-51
2022/06/09 00:14:43;;;;;;;0.82;0.82;;;15.40;99.90;;;15.67;68.43;97098.34;5042829;28;20243;-50
2022/06/09 00:17:11;;;;;;;1.45;1.05;;;15.40;99.90;;;15.70;68.33;97095.25;5042790;28;20056;-47
2022/06/09 00:19:39;;;;;;;0.85;0.85;;;15.50;99.90;;;15.72;68.53;97095.88;5042392;28;20053;-49
2022/06/09 00:22:07;;;;;;;1.83;0.80;;;15.50;99.90;;;15.73;68.19;97096.72;5042722;28;20061;-47
2022/06/09 00:24:34;;;;;;;0.85;0.85;;;15.40;99.90;;;15.75;68.06;97100.03;5042639;28;20251;-46
2022/06/09 00:27:03;;;;;;;1.17;0.90;;;15.50;99.90;;;15.76;68.11;97096.31;5042372;28;20045;-48
2022/06/09 00:29:31;;;;;;;2.53;1.00;;;15.50;99.90;;;15.80;67.99;97102.06;5041813;28;20064;-48
2022/06/09 00:31:59;;;;;;;1.15;0.90;;;15.60;99.90;;;15.74;68.06;97095.66;5042393;28;20052;-49
2022/06/09 00:34:27;;;;;;;0.90;0.90;;;15.50;99.90;;;15.68;67.76;97110.75;5042365;28;20049;-49
2022/06/09 00:36:55;;;;;;;0.77;0.77;;;15.40;99.90;;;15.65;67.60;97103.09;5042368;28;20064;-46
2022/06/09 00:39:23;;;;;;;0.80;0.80;;;15.40;99.90;;;15.68;67.64;97107.22;5042306;28;20348;-51
2022/06/09 00:41:51;;;;;;;1.48;0.80;;;15.50;99.90;;;15.73;67.93;97110.94;5042945;28;20053;-48
2022/06/09 00:44:21;;;;;;;1.83;0.80;;;15.50;99.90;;;15.74;67.82;97109.94;5042073;28;20053;-48
2022/06/09 00:46:59;;;;;;;0.80;0.80;;;15.50;99.90;;;15.74;67.72;97115.31;5042457;28;20053;-46
2022/06/09 00:50:14;;;;;;;1.52;0.80;;;15.50;99.90;;;15.76;67.78;97112.41;5041955;28;20051;-48
2022/06/09 00:53:00;;;;;;;1.08;1.00;;;15.60;99.90;;;15.81;67.73;97112.59;5042297;28;20050;-50
2022/06/09 00:55:33;;;;;;;1.25;1.00;;;15.60;99.90;;;15.78;67.80;97117.56;5041011;28;20055;-47
2022/06/09 00:58:10;;;;;;;1.58;0.93;;;15.50;99.90;;;15.80;67.91;97120.84;5041911;28;20050;-48
2022/06/09 01:00:59;;;;;;;1.40;0.80;;;15.50;99.90;;;15.79;67.80;97130.78;5042295;28;20049;-47
2022/06/09 01:03:38;;;;;;;1.75;1.00;;;15.50;99.90;;;15.76;68.66;97120.47;5040834;28;20339;-47
2022/06/09 01:06:17;;;;;;;3.58;1.70;;;15.40;99.90;;;15.72;68.64;97121.84;5040887;28;20339;-47
2022/06/09 01:09:04;;;;;;;0.88;0.88;;;15.40;99.90;;;15.68;68.80;97124.16;5040871;28;20049;-49
2022/06/09 01:11:33;;;;;;;1.00;1.00;;;15.40;99.90;;;15.67;68.92;97122.47;5040015;28;20049;-53
2022/06/09 01:14:02;;;;;;;2.13;0.80;;;15.30;99.90;;;15.62;69.56;97124.13;5042280;28;20243;-48
2022/06/09 01:17:26;;;;;;;0.95;0.90;;;15.30;99.90;;;15.57;69.18;97119.41;5040958;28;20344;-49
2022/06/09 01:20:24;;;;;;;0.75;0.75;;;15.30;99.90;;;15.58;69.16;97115.66;5058217;28;20053;-46
2022/06/09 01:23:31;;;;;;;3.72;1.00;;;15.20;99.90;;;15.46;69.60;97110.09;5041943;28;20050;-48
2022/06/09 01:26:15;;;;;;;0.90;0.73;;;15.20;99.90;;;15.48;69.52;97107.22;5040476;28;20041;-46
2022/06/09 01:29:09;;;;;;;0.98;0.70;;;15.10;99.90;;;15.44;69.59;97101.44;5040690;28;20052;-48
2022/06/09 01:31:41;;;;;;;;;;;15.00;99.90;;;15.39;69.60;97111.94;5041468;28;20056;-46
2022/06/09 01:34:35;;;;;;;1.85;0.90;;;15.00;99.90;;;15.40;69.91;97116.28;5041696;28;19924;-47
2022/06/09 01:37:12;;;;;;;0.98;0.88;;;15.00;99.90;;;15.39;69.85;97116.47;5041623;28;20049;-47
2022/06/09 01:39:45;;;;;;;1.30;1.20;;;15.00;99.90;;;15.38;69.83;97115.66;5042174;28;20052;-47
2022/06/09 01:42:30;;;;;;;0.88;0.88;;;15.00;99.90;;;15.33;70.37;97121.66;5046184;28;20347;-49
2022/06/09 01:45:12;;;;;;;1.25;1.15;;;15.00;99.90;;;15.21;70.98;97119.75;5045287;28;20045;-48
2022/06/09 01:48:04;;;;;;;1.10;1.00;;;14.90;99.90;;;15.21;71.21;97125.13;5045091;28;20051;-49
2022/06/09 01:50:57;;;;;;;2.40;1.27;;;14.90;99.90;;;15.19;70.70;97129.88;5045237;28;20053;-50
2022/06/09 01:53:35;;;;;;;2.40;1.30;;;14.80;99.90;;;15.21;70.52;97123.25;5045688;28;20056;-47
2022/06/09 01:56:11;;;;;;;2.00;1.55;;;14.80;99.90;;;15.05;70.70;97131.69;5045459;28;20056;-48
2022/06/09 01:58:57;;;;;;;1.80;1.10;;;14.80;99.90;;;15.11;70.25;97134.38;5045110;28;20351;-47
2022/06/09 02:01:33;;;;;;;3.63;1.30;;;14.70;99.90;;;14.94;70.43;97139.25;5045052;28;20053;-49
2022/06/09 02:04:10;;;;;;;1.83;1.30;;;14.60;99.90;;;15.00;70.27;97126.09;5045734;28;20050;-49
2022/06/09 02:06:38;;;;;;;1.40;1.10;;;14.70;99.90;;;15.06;70.28;97126.13;5044220;28;20236;-47
2022/06/09 02:09:06;;;;;;;3.25;1.33;;;14.70;99.90;;;15.07;70.48;97132.31;5044065;28;20048;-50
2022/06/09 02:11:52;;;;;;;1.45;1.30;;;14.80;99.90;;;15.11;70.33;97131.69;5043565;28;20053;-50
2022/06/09 02:14:23;;;;;;;3.60;1.40;;;14.90;99.90;;;15.14;70.40;97133.97;5044860;28;20040;-47
2022/06/09 02:16:51;;;;;;;3.42;1.38;;;14.90;99.90;;;15.08;70.83;97126.75;5044148;28;20049;-49
2022/06/09 02:19:21;;;;;;;1.85;1.13;;;14.80;99.90;;;15.08;70.73;97139.31;5044792;28;20045;-52
2022/06/09 02:21:50;;;;;;;1.70;1.40;;;14.80;99.90;;;15.06;70.58;97136.00;5045070;28;20060;-47
2022/06/09 02:24:18;;;;;;;1.50;1.40;;;14.70;99.90;;;15.02;70.73;97146.31;5044722;28;20061;-51
2022/06/09 02:26:45;;;;;;;2.00;1.42;;;14.70;99.90;;;15.07;70.51;97145.72;5045117;28;20048;-50
2022/06/09 02:29:14;;;;;;;2.38;0.90;;;14.80;99.90;;;15.08;70.73;97148.19;5044573;28;20045;-50
2022/06/09 02:31:42;;;;;;;3.45;1.20;;;14.80;99.90;;;15.10;70.50;97153.34;5045008;28;20310;-52
2022/06/09 02:34:10;;;;;;;1.88;1.63;;;14.80;99.90;;;14.98;70.73;97157.63;5043482;28;20041;-49
2022/06/09 02:36:39;;;;;;;2.10;1.20;;;14.60;99.90;;;15.03;70.57;97157.88;5044647;28;20054;-49
2022/06/09 02:39:07;;;;;;;2.30;1.48;;;14.70;99.90;;;14.92;70.93;97159.25;5045486;28;20060;-48
2022/06/09 02:41:35;;;;;;;3.00;1.50;;;14.60;99.90;;;14.83;71.19;97157.78;5045374;28;20061;-47
2022/06/09 02:44:04;;;;;;;4.25;1.60;;;14.50;99.90;;;14.65;71.78;97159.13;5044426;28;20053;-49
2022/06/09 02:46:32;;;;;;;1.85;1.45;;;14.40;99.90;;;14.49;72.73;97159.47;5044648;28;20052;-50
2022/06/09 02:49:00;;;;;;;2.03;1.60;;;14.30;99.90;;;14.50;72.50;97167.28;5043047;28;20045;-46
2022/06/09 02:51:38;;;;;;;1.95;1.77;;;14.30;99.90;;;14.44;72.75;97156.53;5043411;28;20046;-46
2022/06/09 02:54:13;;;;;;;2.88;2.53;;;14.20;99.90;;;14.44;72.97;97164.56;5043238;28;20045;-50
2022/06/09 02:56:42;;;;;;;5.28;1.52;;;14.20;99.90;;;14.45;72.54;97153.66;5043360;28;20046;-49
2022/06/09 02:59:11;;;;;;;1.92;1.50;;;14.20;99.90;;;14.38;72.97;97167.03;5043852;28;20045;-48
2022/06/09 03:01:40;;;;;;;3.45;1.30;;;14.20;99.90;;;14.20;74.25;97168.56;5044394;28;20116;-47
2022/06/09 03:04:08;;;;;;;2.47;1.40;;;14.00;99.90;;;14.16;74.20;97170.78;5044270;28;20049;-47
2022/06/09 03:06:36;;;;;;;3.20;2.08;;;14.00;99.90;;;14.20;74.28;97172.03;5044107;28;20049;-47
2022/06/09 03:09:04;;;;;;;4.72;1.90;;;14.00;99.90;;;13.83;76.42;97178.56;5043723;28;20240;-48
2022/06/09 03:11:32;;;;;;;3.38;1.75;;;13.90;99.90;;;14.05;74.98;97176.66;5043151;28;20056;-48
2022/06/09 03:14:00;;;;;;;2.45;1.50;;;14.00;99.90;;;14.05;75.22;97184.69;5043958;28;20362;-47
2022/06/09 03:16:28;;;;;;;3.15;1.45;;;14.00;99.90;;;14.05;75.14;97177.50;5045151;28;20050;-50
2022/06/09 03:18:56;;;;;;;2.90;1.60;;;14.00;99.90;;;14.12;74.80;97180.22;5043545;28;20044;-46
2022/06/09 03:21:23;;;;;;;2.65;1.55;;;14.00;99.90;;;14.10;75.19;97188.44;5043994;28;20045;-46
2022/06/09 03:23:51;;;;;;;1.73;1.42;;;14.00;99.90;;;14.13;75.00;97181.88;5043717;28;20049;-46
2022/06/09 03:26:19;;;;;;;5.55;1.83;;;14.10;99.90;;;14.20;74.58;97182.75;5043832;28;20055;-45
2022/06/09 03:28:47;;;;;;;4.68;1.67;;;14.10;99.90;;;14.21;74.35;97187.09;5043321;28;20045;-48
2022/06/09 03:31:15;;;;;;;3.13;1.75;;;14.10;99.90;;;14.30;74.22;97191.25;5043878;28;20048;-46
2022/06/09 03:33:43;;;;;;;3.22;2.40;;;14.20;99.90;;;14.34;74.01;97195.19;5043592;28;20336;-49
2022/06/09 03:36:11;;;;;;;4.88;2.25;;;14.30;99.90;;;14.28;74.12;97200.53;5043497;28;20045;-49
2022/06/09 03:38:40;;;;;;;3.92;1.85;;;14.20;99.90;;;14.29;73.99;97200.31;5043504;28;20053;-49
2022/06/09 03:41:08;;;;;;;5.35;2.25;;;14.20;99.90;;;14.31;73.77;97195.59;5042317;28;20063;-49
2022/06/09 03:43:36;;;;;;;2.53;1.60;;;14.20;99.90;;;14.25;74.00;97201.75;5043066;28;20059;-48
2022/06/09 03:46:05;;;;;;;2.95;1.92;;;14.10;99.90;;;14.15;74.47;97210.13;5043235;28;20045;-49
2022/06/09 03:48:32;;;;;;;3.05;1.67;;;14.00;99.90;;;13.97;74.99;97212.44;5042589;28;20068;-49
2022/06/09 03:51:00;;;;;;;4.93;1.90;;;13.90;99.90;;;13.95;75.23;97219.81;5043279;28;20041;-48
2022/06/09 03:53:28;;;;;;;2.70;1.50;;;13.90;99.90;;;14.12;74.33;97212.34;5043350;28;20045;-49
2022/06/09 03:55:57;;;;;;;8.52;2.72;;;14.00;99.90;;;14.06;74.51;97211.28;5043146;28;20045;-46
2022/06/09 03:58:25;;;;;;;4.05;1.73;;;14.00;99.90;;;14.01;74.68;97221.72;5043012;28;20045;-48
2022/06/09 04:00:53;;;;;;;2.28;1.50;;;13.90;99.90;;;14.05;74.45;97216.81;5042999;28;20359;-48
2022/06/09 04:03:21;;;;;;;3.53;1.90;;;13.90;99.90;;;14.00;74.45;97222.75;5043301;28;20053;-47
2022/06/09 04:05:49;;;;;;;4.65;1.80;;;14.00;99.90;;;13.99;73.96;97213.06;5042644;28;20061;-48
2022/06/09 04:08:17;;;;;;;3.38;1.98;;;13.90;99.90;;;14.05;73.57;97217.63;5042701;28;20048;-46
2022/06/09 04:10:45;;;;;;;2.63;1.58;;;13.90;99.90;;;13.88;73.34;97219.78;5042305;28;20049;-46
2022/06/09 04:13:13;;;;;;;4.80;1.95;;;13.80;99.90;;;14.05;73.17;97222.16;5042947;28;20042;-47
2022/06/09 04:15:42;;;;;;;3.35;1.85;;;13.90;99.90;;;14.13;72.92;97222.03;5042586;28;20041;-48
2022/06/09 04:18:12;;;;;;;7.65;2.17;;;14.00;99.90;;;14.24;72.58;97220.69;5042602;28;20068;-50
2022/06/09 04:20:40;;;;;;;3.10;1.60;;;14.10;99.90;;;14.32;72.38;97232.06;5042797;28;20059;-47
2022/06/09 04:23:08;;;;;;;4.30;2.33;;;14.20;99.90;;;14.38;71.90;97236.66;5042854;28;20049;-46
2022/06/09 04:25:38;;;;;;;3.80;1.50;;;14.20;99.90;;;14.47;71.75;97236.50;5042610;28;20049;-47
2022/06/09 04:28:06;;;;;;;3.08;1.40;;;14.30;99.90;;;14.54;71.65;97248.09;5042160;28;20037;-46
2022/06/09 04:30:34;;;;;;;2.40;1.48;;;14.40;99.90;;;14.57;71.37;97248.53;5042594;28;20042;-49
2022/06/09 04:33:01;;;;;;;3.28;1.83;;;14.30;99.90;;;14.57;70.98;97251.22;5042683;28;20050;-47
2022/06/09 04:35:30;;;;;;;5.25;2.75;;;14.30;99.90;;;14.51;71.10;97248.47;5042800;28;20055;-49
2022/06/09 04:38:01;;;;;;;6.13;2.17;;;14.30;99.90;;;14.53;71.19;97252.59;5042275;28;20048;-50
2022/06/09 04:40:38;;;;;;;2.50;1.80;;;14.30;99.90;;;14.53;71.31;97259.81;5042864;28;20060;-46
2022/06/09 04:43:09;;;;;;;5.75;2.42;;;14.30;99.90;;;14.51;71.10;97251.97;5042538;28;20053;-46
2022/06/09 04:45:40;;;;;;;3.80;1.80;;;14.30;99.90;;;14.50;71.05;97262.88;5041959;28;20049;-48
2022/06/09 04:48:10;;;;;;;3.85;1.80;;;14.20;99.90;;;14.48;71.07;97264.91;5041670;28;20318;-49
2022/06/09 04:50:39;;;;;;;3.58;1.92;;;14.20;99.90;;;14.42;71.06;97261.16;5042980;28;20223;-46
2022/06/09 04:53:09;;;;;;;4.43;1.65;;;14.10;99.90;;;14.44;70.98;97271.69;5042335;28;20042;-48
2022/06/09 04:55:41;;;;;;;2.60;2.08;;;14.10;99.90;;;14.44;71.06;97271.69;5041968;28;20051;-48
2022/06/09 04:58:09;;;;;;;3.05;1.92;;;14.10;99.90;;;14.44;70.90;97271.69;5042243;28;20239;-48
2022/06/09 05:00:38;;;;;;;2.75;1.77;;;14.10;99.90;;;14.43;70.82;97275.41;5042194;28;20049;-48
2022/06/09 05:03:11;;;;;;;4.95;2.10;;;14.10;99.90;;;14.40;70.92;97278.47;5041309;28;20049;-48
2022/06/09 05:05:44;;;;;;;2.72;1.80;;;14.10;99.90;;;14.44;70.85;97279.72;5042330;28;20057;-50
2022/06/09 05:08:13;;;;;;;5.20;1.85;;;14.20;99.90;;;14.42;70.89;97287.13;5041867;28;20041;-50
2022/06/09 05:10:44;;;;;;;5.80;2.05;;;14.20;99.90;;;14.45;70.76;97276.84;5041085;28;20243;-49
2022/06/09 05:13:14;;;;;;;3.40;1.67;;;14.30;99.90;;;14.45;70.71;97284.06;5042274;28;20056;-48
2022/06/09 05:15:54;;;;;;;4.15;1.90;;;14.30;99.90;;;14.47;70.54;97290.88;5048277;28;20055;-47
2022/06/09 05:18:28;;;;;;;4.28;1.77;;;14.30;99.90;;;14.43;70.96;97278.09;5047903;28;20264;-48
2022/06/09 05:20:58;;;;;;;4.85;1.90;;;14.30;99.90;;;14.42;70.73;97287.13;5048670;28;20055;-48
2022/06/09 05:23:27;;;;;;;3.00;1.83;;;14.20;99.90;;;14.45;70.88;97300.16;5048585;28;20053;-48
2022/06/09 05:25:58;;;;;;;4.95;2.13;;;14.30;99.90;;;14.47;70.85;97295.41;5048345;28;20075;-47
2022/06/09 05:28:28;;;;;;;5.38;2.20;;;14.30;99.90;;;14.41;70.81;97304.22;5048181;28;20041;-50
2022/06/09 05:30:57;;;;;;;6.22;2.00;;;14.30;99.90;;;14.45;70.92;97310.84;5048554;28;20045;-48
2022/06/09 05:33:24;;;;;;;3.53;2.72;;;14.30;99.90;;;14.34;71.08;97309.53;5049203;28;20053;-49
2022/06/09 05:35:53;;;;;;;4.10;2.08;;;14.20;99.90;;;14.41;71.22;97310.41;5048283;28;20050;-47
2022/06/09 05:46:45;;;;;;;3.85;2.22;;;14.30;99.90;;;14.43;70.91;97318.25;5048655;28;20053;-47
2022/06/09 05:49:17;;;;;;;4.72;2.50;;;14.30;99.90;;;14.41;71.16;97322.97;5047847;28;20038;-48
2022/06/09 05:51:49;;;;;;;5.28;2.45;;;14.30;99.90;;;14.48;70.85;97321.16;5048407;28;20056;-47
2022/06/09 05:54:17;;;;;;;3.10;2.25;;;14.40;99.90;;;14.32;71.03;97324.94;5047208;28;20055;-48
2022/06/09 05:56:46;;;;;;;6.10;2.53;;;14.20;99.90;;;14.32;71.10;97330.31;5048031;28;20050;-49
2022/06/09 05:59:14;;;;;;;7.43;2.30;;;14.30;99.90;;;14.24;71.27;97330.44;5047777;28;20057;-50
2022/06/09 06:01:43;;;;;;;5.13;2.40;;;14.30;99.90;;;14.36;70.87;97334.25;5048287;28;20049;-50
2022/06/09 06:04:11;;;;;;;3.55;2.15;;;14.40;99.90;;;14.43;70.87;97342.34;5048960;28;20060;-48
2022/06/09 06:06:39;;;;;;;5.47;3.22;;;14.40;99.90;;;14.35;70.41;97338.78;5046909;28;20065;-50
2022/06/09 06:09:15;;;;;;;3.25;2.08;;;14.40;99.90;;;14.17;70.32;97343.75;5047861;28;20037;-51
2022/06/09 06:11:46;;;;;;;5.88;1.90;;;14.30;99.90;;;14.24;70.40;97344.66;5047228;28;20054;-48
2022/06/09 06:14:16;;;;;;;3.08;1.70;;;14.30;99.90;;;14.21;69.68;97361.13;5048199;28;20192;-51
2022/06/09 06:16:44;;;;;;;6.10;1.98;;;14.30;99.90;;;14.28;69.86;97351.28;5048431;28;20234;-49
2022/06/09 06:19:16;;;;;;;5.28;1.98;;;14.40;99.90;;;14.32;69.80;97352.53;5047931;28;20056;-47
2022/06/09 06:21:47;;;;;;;4.10;1.83;;;14.40;99.90;;;14.46;69.63;97366.91;5048583;28;20057;-46
2022/06/09 06:24:17;;;;;;;3.95;2.95;;;14.60;99.90;;;14.40;69.64;97362.31;5047915;28;20061;-48
2022/06/09 06:26:45;;;;;;;4.88;2.08;;;14.60;99.90;;;14.53;69.42;97366.97;5045447;28;20045;-48
2022/06/09 06:29:22;;;;;;;6.35;1.90;;;14.60;99.90;;;14.72;68.99;97365.50;5044623;28;20239;-49
2022/06/09 06:31:50;;;;;;;4.53;2.17;;;14.80;99.90;;;14.64;67.39;97371.81;5043921;28;20048;-51
2022/06/09 06:34:19;;;;;;;4.85;1.88;;;14.80;99.90;;;14.31;66.97;97369.66;5044518;28;20051;-48
2022/06/09 06:36:48;;;;;;;5.93;1.85;;;14.60;99.90;;;14.65;67.77;97369.97;5044760;28;20041;-48
2022/06/09 06:39:16;;;;;;;3.03;2.35;;;14.70;99.90;;;14.72;67.44;97377.03;5044528;28;20054;-46
2022/06/09 06:41:44;;;;;;;4.22;1.77;;;14.90;99.90;;;14.79;67.57;97379.75;5044398;28;20045;-46
2022/06/09 06:44:12;;;;;;;3.88;1.42;;;15.00;99.90;;;14.69;66.32;97381.94;5045018;28;20053;-47
2022/06/09 06:46:40;;;;;;;6.28;2.35;;;14.90;99.90;;;14.87;67.10;97382.31;5044663;28;20347;-48
2022/06/09 06:49:08;;;;;;;5.25;1.80;;;15.00;99.90;;;14.93;66.34;97391.44;5044198;28;20052;-50
2022/06/09 06:51:37;;;;;;;4.28;2.42;;;15.10;99.90;;;14.97;65.92;97395.38;5044491;28;20045;-47
2022/06/09 06:54:05;;;;;;;5.60;1.70;;;15.10;99.90;;;14.86;65.65;97398.59;5044276;28;20037;-50
2022/06/09 06:56:35;;;;;;;2.53;1.40;;;15.10;99.90;;;14.90;65.56;97406.03;5045029;28;20059;-48
2022/06/09 06:59:03;;;;;;;7.15;1.60;;;15.10;99.90;;;14.85;65.13;97399.59;5044201;28;20047;-46
2022/06/09 07:01:32;;;;;;;2.75;1.50;;;15.10;99.90;;;14.93;64.93;97402.97;5044290;28;20045;-48
2022/06/09 07:04:00;;;;;;;6.15;2.03;;;15.20;99.90;;;14.96;65.34;97407.94;5043006;28;20332;-47
2022/06/09 07:06:28;;;;;;;4.50;1.85;;;15.20;99.90;;;15.08;65.38;97415.44;5044954;28;20061;-51
2022/06/09 07:08:56;;;;;;;6.45;1.85;;;15.30;99.90;;;15.22;65.09;97413.66;5043924;28;20051;-49
2022/06/09 07:11:24;;;;;;;5.53;2.10;;;15.40;99.90;;;15.09;65.50;97411.75;5043319;28;20052;-53
2022/06/09 07:13:52;;;;;;;6.25;2.78;;;15.30;99.90;;;14.97;65.74;97422.19;5044765;28;20084;-52
2022/06/09 07:16:19;;;;;;;4.80;2.17;;;15.20;99.90;;;15.12;66.22;97428.28;5043793;28;20344;-46
2022/06/09 07:19:07;;;;;;;3.95;1.67;;;15.30;99.90;;;15.21;65.47;97423.56;5043822;28;20336;-46
2022/06/09 07:21:35;;;;;;;4.72;1.65;;;15.50;99.90;;;15.20;64.81;97413.88;5043854;28;20340;-46
2022/06/09 07:24:04;;;;;;;3.50;1.77;;;15.50;99.90;;;15.34;64.90;97434.41;5043695;28;20053;-46
2022/06/09 07:26:32;;;;;;;7.32;1.85;;;15.60;99.90;;;15.26;65.14;97423.81;5043848;28;20053;-48
2022/06/09 07:29:00;;;;;;;4.05;1.58;;;15.50;99.90;;;15.44;63.71;97431.34;5043379;28;20041;-48
2022/06/09 07:31:27;;;;;;;5.65;2.85;;;15.60;99.90;;;15.22;63.09;97435.97;5044010;28;20080;-51
2022/06/09 07:33:56;;;;;;;3.65;1.70;;;15.50;99.90;;;15.05;63.15;97430.06;5044324;28;20059;-47
2022/06/09 07:36:26;;;;;;;7.50;1.70;;;15.30;99.90;;;15.28;63.16;97440.56;5043900;28;20053;-47
2022/06/09 07:38:54;;;;;;;6.68;2.40;;;15.50;99.90;;;15.18;63.51;97434.72;5042887;28;20051;-48
2022/06/09 07:41:22;;;;;;;5.07;3.65;;;15.50;99.90;;;15.34;63.54;97439.75;5044025;28;20053;-46
2022/06/09 07:44:03;;;;;;;6.68;1.67;;;15.60;99.90;;;15.43;64.06;97434.22;5043307;28;20046;-50
2022/06/09 07:46:31;;;;;;;7.90;2.47;;;15.70;99.90;;;15.48;63.53;97446.03;5043191;28;20051;-46
2022/06/09 07:49:01;;;;;;;6.68;2.38;;;15.90;99.90;;;15.43;62.70;97443.13;5042984;28;20244;-46
2022/06/09 07:51:30;;;;;;;5.05;1.95;;;15.80;99.30;;;15.59;63.49;97450.03;5043209;28;20071;-46
2022/06/09 07:53:59;;;;;;;6.10;1.92;;;16.00;99.90;;;15.77;62.51;97449.53;5042068;28;20049;-48
2022/06/09 07:56:28;;;;;;;5.07;1.77;;;16.10;98.70;;;15.82;61.73;97456.97;5043396;28;20243;-47
2022/06/09 07:58:56;;;;;;;4.85;1.50;;;16.20;96.40;;;15.82;60.63;97460.50;5042876;28;20235;-48
2022/06/09 08:01:24;;;;;;;4.05;1.60;;;16.20;93.40;;;15.99;61.65;97457.47;5043055;28;20395;-49
2022/06/09 08:03:53;;;;;;;2.83;1.60;;;16.30;97.10;;;15.83;60.62;97453.28;5043092;28;20332;-46
2022/06/09 08:06:22;;;;;;;6.47;1.63;;;16.10;93.70;;;15.94;61.48;97456.22;5043138;28;20051;-46
2022/06/09 08:08:56;;;;;;;4.55;1.60;;;16.20;95.90;;;15.96;61.36;97460.56;5043206;28;20319;-48
2022/06/09 08:11:29;;;;;;;4.03;2.20;;;16.20;94.30;;;15.83;60.42;97466.69;5043050;28;20250;-46
2022/06/09 08:13:58;;;;;;;7.45;2.63;;;16.00;92.10;;;15.77;60.19;97462.13;5042067;28;20080;-50
2022/06/09 08:16:28;;;;;;;2.45;1.83;;;16.10;90.50;;;15.72;60.31;97463.53;5042999;28;20048;-47
2022/06/09 08:18:57;;;;;;;5.35;1.40;;;16.00;89.90;;;15.57;59.94;97457.44;5042450;28;20047;-48
2022/06/09 08:21:27;;;;;;;4.78;1.85;;;15.90;88.70;;;15.63;60.00;97461.19;5042984;28;20239;-49
2022/06/09 08:24:14;;;;;;;5.63;1.52;;;16.00;87.40;;;15.78;60.91;97469.97;5042711;28;20035;-48
2022/06/09 08:26:42;;;;;;;2.15;1.40;;;16.10;89.90;;;15.75;59.04;97473.06;5041432;28;20373;-47
2022/06/09 08:29:10;;;;;;;6.07;1.98;;;16.00;84.10;;;15.85;59.26;97473.50;5042771;28;20064;-51
2022/06/09 08:31:39;;;;;;;4.25;1.67;;;16.00;86.30;;;15.64;58.89;97465.53;5042704;28;20041;-46
2022/06/09 08:34:07;;;;;;;4.53;1.70;;;15.90;83.30;;;15.63;59.43;97479.97;5042860;28;20053;-45
2022/06/09 08:36:35;;;;;;;4.00;1.50;;;15.90;84.00;;;15.83;59.87;97480.94;5043005;28;20057;-49
2022/06/09 08:39:04;;;;;;;3.63;1.73;;;16.00;85.70;;;15.77;60.08;97491.66;5042244;28;20045;-46
2022/06/09 08:41:47;;;;;;;9.73;1.80;;;16.10;84.70;;;15.70;59.14;97488.88;5042573;28;20152;-46
2022/06/09 08:44:16;;;;;;;3.13;1.60;;;16.00;82.80;;;15.44;58.96;97490.38;5041240;28;20053;-53
2022/06/09 08:47:14;;;;;;;3.85;1.65;;;15.80;81.20;;;15.61;59.45;97473.97;5042353;28;20290;-47
2022/06/09 08:50:00;;;;;;;6.88;2.22;;;16.00;82.10;;;15.80;59.94;97483.19;5041530;28;20042;-47
2022/06/09 08:52:50;;;;;;;4.25;1.85;;;16.20;82.10;;;15.85;60.56;97484.25;5042355;28;20051;-46
2022/06/09 08:55:45;;;;;;;8.27;1.98;;;16.30;84.80;;;15.78;58.99;97490.59;5041211;28;20041;-48
2022/06/09 08:58:36;;;;;;;6.07;1.60;;;16.00;80.00;;;15.83;59.07;97477.44;5040973;28;20056;-47
2022/06/09 09:01:22;;;;;;;5.13;1.50;;;16.00;80.90;;;15.84;60.02;97489.81;5041757;28;20075;-47
2022/06/09 09:04:01;;;;;;;4.57;1.73;;;16.10;82.90;;;15.91;60.09;97488.81;5041865;28;20079;-46
2022/06/09 09:07:04;;;;;;;3.58;2.08;;;16.30;81.90;;;16.08;58.84;97485.81;5041400;28;20059;-49
2022/06/09 09:09:35;;;;;;;3.90;1.77;;;16.60;78.70;;;16.25;58.28;97497.88;5039791;28;20057;-51
2022/06/09 09:12:51;;;;;;;6.03;1.70;;;16.70;76.90;;;16.46;58.12;97485.31;5042200;28;20049;-48
2022/06/09 09:15:31;;;;;;;6.18;1.83;;;17.00;75.60;;;16.69;57.13;97495.69;5041670;28;20068;-50
2022/06/09 09:18:29;;;;;;;4.63;1.50;;;17.20;73.50;;;16.74;56.74;97494.06;5041732;28;20050;-48
2022/06/09 09:21:28;;;;;;;4.05;1.90;;;17.20;70.40;;;16.77;56.17;97489.31;5042311;28;20041;-48
2022/06/09 09:24:22;;;;;;;3.17;1.45;;;17.10;68.20;;;16.65;55.54;97491.75;5041618;28;20045;-48
2022/06/09 09:27:12;;;;;;;3.75;1.70;;;17.00;69.60;;;16.61;55.30;97488.66;5042108;28;20045;-46
2022/06/09 09:30:13;;;;;;;3.75;1.60;;;17.00;68.60;;;16.83;55.20;97496.59;5040763;28;20052;-48
2022/06/09 09:32:48;;;;;;;2.92;1.70;;;17.20;69.30;;;16.88;54.93;97494.94;5041075;28;20045;-46
2022/06/09 09:35:21;;;;;;;3.45;1.58;;;17.40;67.30;;;16.90;55.66;97503.66;5041680;28;20037;-48
2022/06/09 09:37:55;;;;;;;;;;;17.40;68.80;;;17.01;55.64;97490.63;5041005;28;20049;-47
2022/06/09 09:40:35;;;;;;;6.43;1.73;;;17.50;69.80;;;16.96;55.08;97507.34;5042036;28;19917;-50
2022/06/09 09:43:28;;;;;;;2.35;1.05;;;17.40;68.00;;;16.76;54.54;97504.63;5057732;28;20045;-49
2022/06/09 09:45:56;;;;;;;2.92;1.42;;;17.20;67.20;;;16.84;55.21;97511.69;5042096;28;20068;-48
2022/06/09 09:48:24;;;;;;;7.10;1.85;;;17.10;68.20;;;17.01;55.38;97515.66;5041342;28;20344;-48
2022/06/09 09:51:06;;;;;;;4.18;1.73;;;17.40;69.10;;;16.90;55.25;97518.94;5041735;28;20046;-50
2022/06/09 09:53:55;;;;;;;2.17;1.30;;;17.30;68.00;;;17.03;55.68;97512.75;5041864;28;20046;-46
2022/06/09 09:56:35;;;;;;;3.35;1.35;;;17.40;68.60;;;17.04;55.50;97519.78;5041947;28;20041;-47
2022/06/09 09:59:23;;;;;;;4.13;1.60;;;17.40;68.80;;;16.86;55.30;97510.44;5041559;28;20049;-48
2022/06/09 10:10:58;;;;;;;3.47;1.70;;;17.30;67.30;;;17.13;55.26;97514.00;5044232;28;20228;-47
2022/06/09 10:13:33;;;;;;;6.88;2.50;;;17.50;67.70;;;17.26;55.41;97515.03;5045276;28;20061;-45
2022/06/09 10:16:03;;;;;;;5.43;2.55;;;17.70;67.70;;;17.56;54.96;97523.50;5045145;28;20240;-48
2022/06/09 10:18:55;;;;;;;3.50;1.83;;;18.00;67.40;;;17.64;54.83;97517.06;5044197;28;20051;-47
2022/06/09 10:21:55;;;;;;;6.47;2.55;;;18.10;66.60;;;17.63;53.71;97521.63;5045164;28;20043;-46
2022/06/09 10:24:53;;;;;;;5.38;1.75;;;18.20;64.30;;;17.74;53.45;97533.66;5044897;28;20043;-46
2022/06/09 10:27:27;;;;;;;3.28;1.65;;;18.10;63.90;;;17.71;54.29;97531.34;5044316;28;20060;-48
2022/06/09 10:30:01;;;;;;;;;;;18.10;66.00;;;17.42;54.70;97538.81;5045212;28;20256;-47
2022/06/09 10:33:02;;;;;;;6.68;1.83;;;17.70;66.30;;;17.55;53.81;97537.19;5043949;28;19917;-47
2022/06/09 10:35:40;;;;;;;2.72;1.48;;;17.80;65.20;;;17.32;54.69;97535.72;5045111;28;20370;-48
2022/06/09 10:38:48;;;;;;;2.53;1.58;;;17.60;66.90;;;17.26;54.30;97539.25;5044529;28;20059;-49
2022/06/09 10:41:43;;;;;;;3.60;2.53;;;17.60;66.00;;;17.33;55.14;97542.75;5043833;28;20221;-47
2022/06/09 10:44:35;;;;;;;3.55;1.70;;;17.50;67.60;;;17.05;54.07;97535.72;5043530;28;20056;-46
2022/06/09 10:58:16;;;;;;;4.78;1.50;;;17.40;63.40;;;17.14;51.84;97544.44;5032961;28;20057;-49
2022/06/09 11:00:50;;;;;;;2.50;1.40;;;17.70;60.10;;;17.25;51.08;97549.19;5037121;28;20049;-46
2022/06/09 11:03:39;;;;;;;4.70;1.70;;;17.80;59.50;;;17.39;51.85;97547.34;5043933;28;20049;-50
2022/06/09 11:06:25;;;;;;;3.72;1.60;;;18.00;60.10;;;17.58;51.99;97551.03;5044033;28;20056;-46
2022/06/09 11:09:21;;;;;;;5.68;1.55;;;18.20;60.30;;;17.85;51.14;97557.25;5043972;28;20251;-50
2022/06/09 11:12:05;;;;;;;5.25;2.17;;;18.50;59.20;;;17.66;51.50;97550.84;5043171;28;20049;-48
2022/06/09 11:14:45;;;;;;;3.55;1.80;;;18.30;60.10;;;17.77;53.27;97552.06;5059704;28;20049;-48
2022/06/09 11:18:07;;;;;;;3.05;1.80;;;18.30;63.30;;;17.86;52.96;97552.72;5044212;28;20061;-46
2022/06/09 11:21:03;;;;;;;2.15;1.70;;;18.50;61.60;;;18.02;52.72;97557.63;5043942;28;20045;-45